MKJS/MBJ METAR and TAF weather

Enter ICAO airport designator
Station Type Date Time Source
MKJS METAR 2021/05/14 22:00 UTC NOAA

MKJS 142200Z 05010KT 9999 FEW022 FEW024CB 30/23 Q1013


Station Type Date Time Source
MKJS Decoded METAR 2021/05/14 22:00 UTC NOAA

Montego Bay / Sangster, Jamaica (MKJS) 18-30N 077-55W 8M
May 14, 2021 - 06:00 PM EDT / 2021.05.14 2200 UTC
Wind: from the NE (050 degrees) at 12 MPH (10 KT):0
Visibility: greater than 7 mile(s):0
Sky conditions: mostly clear
Weather: Cumulonimbus clouds observed
Temperature: 86 F (30 C)
Heat index: 93.4 F (34.1 C):1
Dew Point: 73 F (23 C)
Relative Humidity: 66%
Pressure (altimeter): 29.91 in. Hg (1013 hPa)
ob: MKJS 142200Z 05010KT 9999 FEW022 FEW024CB 30/23 Q1013
cycle: 22

Station Type Date Time Source
MKJS TAF 2021/05/14 18:23 UTC NOAA

TAF MKJS 141715Z 1418/1518 06014KT 9999 FEW022 PROB30
TEMPO 1419/1423 SCT020 FEW022CB
BECMG 1501/1503 VRB04KT
BECMG 1514/1516 06014KT

Example: see airport list